Big Lake, Texas
Current Conditions -  °F | °C
As of 10:30 AM on Wednesday 26 Nov 2014 (Local Time) from KOZA Reporting Station
Clear Clear  
Wind Chill: 17°   Ceiling: Unl
Heat Index: 17°   Visibility: 10mi
Dew Point: -8°   Wind: 10mph
Humidity: 18%   Direction: 290°WNW
Pressure: 30.28"   Gusts: NA
Location:  31.19°N, 101.46°W
Report Text: KOZA 261630Z AUTO 29009KT 10SM CLR 17/M08 A3028 RMK AO2
Loading
Personal Weather Stations






























Interactive Weather Map New forecast layout! Learn more

10-Day Weather Forecast

Advertisements
Track Severe Weather on mobile